createdAt,value
2017-11-20T11:15:28.007Z,932
2017-11-20T11:16:40.799Z,932.01
2017-11-20T11:17:53.588Z,931.96
2017-11-20T11:19:05.469Z,932
2017-11-20T11:20:18.268Z,931.97
2017-11-20T11:21:30.587Z,932.04
2017-11-20T11:22:43.360Z,931.99
2017-11-20T11:23:56.088Z,931.99
2017-11-20T11:25:08.381Z,932.02
2017-11-20T11:26:21.618Z,932.05
2017-11-20T11:27:34.012Z,932.07
2017-11-20T11:28:46.717Z,932.11
2017-11-20T11:29:59.391Z,932.15
2017-11-20T11:31:11.652Z,932.13
2017-11-20T11:32:23.933Z,932.18
2017-11-20T11:33:36.254Z,932.25
2017-11-20T11:34:48.551Z,932.25
2017-11-20T11:36:01.255Z,932.21
2017-11-20T11:37:17.584Z,932.23
2017-11-20T11:38:30.270Z,932.24
2017-11-20T11:39:46.058Z,932.28
2017-11-20T11:40:58.856Z,932.25
2017-11-20T11:42:11.587Z,932.24
2017-11-20T11:43:24.754Z,932.23
2017-11-20T11:44:36.989Z,932.21
2017-11-20T11:45:49.794Z,932.23
2017-11-20T11:47:02.510Z,932.2
2017-11-20T11:48:15.243Z,932.18
2017-11-20T11:49:27.971Z,932.19
2017-11-20T11:50:40.779Z,932.19
2017-11-20T11:51:53.125Z,932.22
2017-11-20T11:53:05.390Z,932.33
2017-11-20T11:54:18.144Z,932.36
2017-11-20T11:55:30.413Z,932.42
2017-11-20T11:56:42.676Z,932.45
2017-11-20T11:57:55.004Z,932.46
2017-11-20T11:59:07.759Z,932.43
2017-11-20T12:00:19.593Z,932.39
2017-11-20T12:01:31.897Z,932.42
2017-11-20T12:02:44.606Z,932.41
2017-11-20T12:03:57.331Z,932.4
2017-11-20T12:05:09.577Z,932.37
2017-11-20T12:06:21.379Z,932.42
2017-11-20T12:07:33.649Z,932.43
2017-11-20T12:08:46.414Z,932.47
2017-11-20T12:09:59.212Z,932.43
2017-11-20T12:11:11.945Z,932.4
2017-11-20T12:12:24.243Z,932.37
2017-11-20T12:13:36.921Z,932.39
2017-11-20T12:14:49.598Z,932.38
2017-11-20T12:16:02.335Z,932.4
2017-11-20T12:17:14.174Z,932.46
2017-11-20T12:18:26.902Z,932.45
2017-11-20T12:19:39.668Z,932.51
2017-11-20T12:20:52.397Z,932.51
2017-11-20T12:22:04.697Z,932.53
2017-11-20T12:23:17.496Z,932.54
2017-11-20T12:24:30.267Z,932.53
2017-11-20T12:25:42.992Z,932.57
2017-11-20T12:26:55.249Z,932.59
2017-11-20T12:28:07.544Z,932.64
2017-11-20T12:29:19.362Z,932.65
2017-11-20T12:30:32.119Z,932.62
2017-11-20T12:31:44.918Z,932.62
2017-11-20T12:32:57.657Z,932.65
2017-11-20T12:34:10.411Z,932.61
2017-11-20T12:35:23.162Z,932.56
2017-11-20T12:36:35.510Z,932.58
2017-11-20T12:37:47.810Z,932.57
2017-11-20T12:39:00.557Z,932.54
2017-11-20T12:40:13.256Z,932.52
2017-11-20T12:41:25.553Z,932.47
2017-11-20T12:42:37.844Z,932.51
2017-11-20T12:43:49.720Z,932.53
2017-11-20T12:45:02.499Z,932.56
2017-11-20T12:46:15.537Z,932.54
2017-11-20T12:47:27.803Z,932.54
2017-11-20T12:48:40.076Z,932.49
2017-11-20T12:49:52.863Z,932.48
2017-11-20T12:51:05.591Z,932.46
2017-11-20T12:52:17.873Z,932.44
2017-11-20T12:53:30.152Z,932.41
2017-11-20T12:54:42.384Z,932.38
2017-11-20T12:55:55.116Z,932.39
2017-11-20T12:57:07.857Z,932.33
2017-11-20T12:58:20.145Z,932.38
2017-11-20T12:59:32.840Z,932.35
2017-11-20T13:00:45.054Z,932.36
2017-11-20T13:01:57.822Z,932.38
2017-11-20T13:03:10.134Z,932.41
2017-11-20T13:04:22.866Z,932.38
2017-11-20T13:05:35.615Z,932.41
2017-11-20T13:06:48.309Z,932.4
2017-11-20T13:08:01.047Z,932.43
2017-11-20T13:09:13.701Z,932.41
2017-11-20T13:10:26.449Z,932.41
2017-11-20T13:11:39.179Z,932.41
2017-11-20T13:12:51.837Z,932.38
2017-11-20T13:14:04.169Z,932.37
2017-11-20T13:15:16.887Z,932.4
2017-11-20T13:16:29.116Z,932.37
2017-11-20T13:17:41.781Z,932.41
2017-11-20T13:18:54.435Z,932.41
2017-11-20T13:20:06.644Z,932.44
2017-11-20T13:21:18.817Z,932.49
2017-11-20T13:22:31.478Z,932.49
2017-11-20T13:23:44.106Z,932.48
2017-11-20T13:24:56.321Z,932.51
2017-11-20T13:26:08.064Z,932.5
2017-11-20T13:27:20.675Z,932.48
2017-11-20T13:28:33.286Z,932.51
2017-11-20T13:29:45.912Z,932.5
2017-11-20T13:30:58.541Z,932.51
2017-11-20T13:32:10.704Z,932.48
2017-11-20T13:33:22.428Z,932.55
2017-11-20T13:34:35.064Z,932.51
2017-11-20T13:35:47.684Z,932.52
2017-11-20T13:37:00.339Z,932.54
2017-11-20T13:38:11.653Z,932.49
2017-11-20T13:39:24.338Z,932.51
2017-11-20T13:40:37.058Z,932.53
2017-11-20T13:41:49.778Z,932.53
2017-11-20T13:43:02.476Z,932.54
2017-11-20T13:44:14.778Z,932.56
2017-11-20T13:45:27.019Z,932.57
2017-11-20T13:46:39.694Z,932.48
2017-11-20T13:47:51.967Z,932.49
2017-11-20T13:49:04.233Z,932.51
2017-11-20T13:50:16.011Z,932.48
2017-11-20T13:51:28.717Z,932.47
2017-11-20T13:52:40.953Z,932.46
2017-11-20T13:53:53.642Z,932.47
2017-11-20T13:55:06.305Z,932.54
2017-11-20T13:56:18.581Z,932.54
2017-11-20T13:57:31.293Z,932.57
2017-11-20T13:58:44.049Z,932.54
2017-11-20T13:59:56.762Z,932.55
2017-11-20T14:01:09.454Z,932.56
2017-11-20T14:02:22.153Z,932.56
2017-11-20T14:03:34.862Z,932.59
2017-11-20T14:04:47.109Z,932.6
2017-11-20T14:05:59.376Z,932.59
2017-11-20T14:07:12.079Z,932.67
2017-11-20T14:08:24.791Z,932.71
2017-11-20T14:09:37.466Z,932.68
2017-11-20T14:10:49.698Z,932.69
2017-11-20T14:12:02.404Z,932.71
2017-11-20T14:13:15.012Z,932.68
2017-11-20T14:14:27.631Z,932.69
2017-11-20T14:15:40.289Z,932.65
2017-11-20T14:16:52.910Z,932.7
2017-11-20T14:18:05.537Z,932.7
2017-11-20T14:19:17.705Z,932.72
2017-11-20T14:20:29.880Z,932.69
2017-11-20T14:21:42.553Z,932.74
2017-11-20T14:22:55.177Z,932.79
2017-11-20T14:24:07.802Z,932.79
2017-11-20T14:25:20.410Z,932.78
2017-11-20T14:26:33.033Z,932.76
2017-11-20T14:27:45.205Z,932.79
2017-11-20T14:28:57.832Z,932.77
2017-11-20T14:30:10.455Z,932.8
2017-11-20T14:31:23.067Z,932.85
2017-11-20T14:32:34.800Z,932.84
2017-11-20T14:33:47.432Z,932.88
2017-11-20T14:35:00.046Z,932.89
2017-11-20T14:36:12.238Z,932.87
2017-11-20T14:37:24.403Z,932.85
2017-11-20T14:38:37.032Z,932.84
2017-11-20T14:39:49.657Z,932.85
2017-11-20T14:41:01.830Z,932.86
2017-11-20T14:42:14.479Z,932.86
2017-11-20T14:43:27.091Z,932.83
2017-11-20T14:44:39.720Z,932.8
2017-11-20T14:45:52.346Z,932.82
2017-11-20T14:47:04.974Z,932.83
2017-11-20T14:48:17.599Z,932.78
2017-11-20T14:49:30.224Z,932.77
2017-11-20T14:50:42.876Z,932.82
2017-11-20T14:51:55.507Z,932.82
2017-11-20T14:53:08.153Z,932.8
2017-11-20T14:54:20.771Z,932.78
2017-11-20T14:55:32.975Z,932.83
2017-11-20T14:56:45.637Z,932.87
2017-11-20T14:57:58.268Z,932.85
2017-11-20T14:59:10.934Z,932.86
2017-11-20T15:00:23.568Z,932.8
2017-11-20T15:01:36.200Z,932.84
2017-11-20T15:03:02.501Z,932.81
2017-11-20T15:04:15.153Z,932.79
2017-11-20T15:05:27.801Z,932.8
2017-11-20T15:06:40.010Z,932.82
2017-11-20T15:07:52.205Z,932.81
2017-11-20T15:09:04.858Z,932.82
2017-11-20T15:10:17.518Z,932.8
2017-11-20T15:11:30.156Z,932.78
2017-11-20T15:12:42.336Z,932.75
2017-11-20T15:13:54.972Z,932.76
2017-11-20T15:15:07.632Z,932.75
2017-11-20T15:16:20.294Z,932.71
2017-11-20T15:17:32.484Z,932.68
2017-11-20T15:18:44.649Z,932.68
2017-11-20T15:19:56.852Z,932.67
2017-11-20T15:21:09.498Z,932.61
2017-11-20T15:22:21.677Z,932.58
2017-11-20T15:23:34.335Z,932.56
2017-11-20T15:24:46.978Z,932.51
2017-11-20T15:25:59.634Z,932.52
2017-11-20T15:27:11.830Z,932.48
2017-11-20T15:28:24.486Z,932.45
2017-11-20T15:29:37.135Z,932.43
2017-11-20T15:30:49.824Z,932.41
2017-11-20T15:32:02.518Z,932.42
2017-11-20T15:33:14.737Z,932.43
2017-11-20T15:34:27.399Z,932.46
2017-11-20T15:35:39.594Z,932.46
2017-11-20T15:36:52.237Z,932.44
2017-11-20T15:38:04.891Z,932.43
2017-11-20T15:39:17.544Z,932.38
2017-11-20T15:40:30.184Z,932.37
2017-11-20T15:41:42.846Z,932.34
2017-11-20T15:42:55.466Z,932.3
2017-11-20T15:44:08.138Z,932.32
2017-11-20T15:45:20.468Z,932.29
2017-11-20T15:46:32.673Z,932.23
2017-11-20T15:47:45.295Z,932.22
2017-11-20T15:48:57.950Z,932.25
2017-11-20T15:50:10.611Z,932.26
2017-11-20T15:51:23.260Z,932.28
2017-11-20T15:52:35.927Z,932.3
2017-11-20T15:53:47.702Z,932.29
2017-11-20T15:55:00.369Z,932.26
2017-11-20T15:56:13.007Z,932.29
2017-11-20T15:57:25.659Z,932.22
2017-11-20T15:58:37.395Z,932.23
2017-11-20T15:59:50.039Z,932.2
2017-11-20T16:01:02.259Z,932.21
2017-11-20T16:02:14.806Z,932.21
2017-11-20T16:03:27.476Z,932.25
2017-11-20T16:04:40.137Z,932.21
2017-11-20T16:05:52.806Z,932.21
2017-11-20T16:07:05.448Z,932.19
2017-11-20T16:08:18.073Z,932.18
2017-11-20T16:09:30.717Z,932.2
2017-11-20T16:10:42.929Z,932.14
2017-11-20T16:11:55.560Z,932.16
2017-11-20T16:13:07.768Z,932.13
2017-11-20T16:14:20.435Z,932.18
2017-11-20T16:15:32.670Z,932.19
2017-11-20T16:16:44.884Z,932.2
2017-11-20T16:17:57.068Z,932.14
2017-11-20T16:19:09.688Z,932.18
2017-11-20T16:20:22.367Z,932.2
2017-11-20T16:21:35.004Z,932.23
2017-11-20T16:22:48.095Z,932.17
2017-11-20T16:23:59.838Z,932.18
2017-11-20T16:25:12.030Z,932.19
2017-11-20T16:26:23.783Z,932.16
2017-11-20T16:27:36.437Z,932.16
2017-11-20T16:28:49.082Z,932.13
2017-11-20T16:30:01.729Z,932.14
2017-11-20T16:31:14.347Z,932.13
2017-11-20T16:32:26.986Z,932.11
2017-11-20T16:33:39.628Z,932.09
2017-11-20T16:34:52.260Z,932.07
2017-11-20T16:36:04.041Z,932.09
2017-11-20T16:37:15.802Z,932.07
2017-11-20T16:38:28.476Z,932.09
2017-11-20T16:39:41.126Z,932.1
2017-11-20T16:40:53.763Z,932.13
2017-11-20T16:42:05.943Z,932.08
2017-11-20T16:43:18.585Z,932.11
2017-11-20T16:44:30.791Z,932.07
2017-11-20T16:45:43.001Z,932.13
2017-11-20T16:46:55.643Z,932.07
2017-11-20T16:48:07.823Z,932.07
2017-11-20T16:49:20.016Z,932.05
2017-11-20T16:50:32.671Z,932.01
2017-11-20T16:51:45.299Z,932.01
2017-11-20T16:52:57.920Z,931.99
2017-11-20T16:54:10.104Z,932.01
2017-11-20T16:55:21.835Z,932
2017-11-20T16:56:34.463Z,931.96
2017-11-20T16:57:46.630Z,931.98
2017-11-20T16:58:59.249Z,931.96
2017-11-20T17:00:11.442Z,931.95
2017-11-20T17:01:23.623Z,931.96
2017-11-20T17:02:36.244Z,931.94
2017-11-20T17:03:48.892Z,931.93
2017-11-20T17:05:01.074Z,931.89
2017-11-20T17:06:13.721Z,931.92
2017-11-20T17:07:26.419Z,931.9
2017-11-20T17:08:39.126Z,931.84
2017-11-20T17:09:51.926Z,931.92
2017-11-20T17:11:04.212Z,931.89
2017-11-20T17:12:16.485Z,931.87
2017-11-20T17:13:28.742Z,931.88
2017-11-20T17:14:41.381Z,931.9
2017-11-20T17:15:52.291Z,931.91
2017-11-20T17:17:04.297Z,931.91
2017-11-20T17:18:16.122Z,931.95
2017-11-20T17:19:28.349Z,931.96
2017-11-20T17:20:41.043Z,931.95
2017-11-20T17:21:53.352Z,931.92
2017-11-20T17:23:05.315Z,931.94
2017-11-20T17:24:17.098Z,931.89
2017-11-20T17:25:29.325Z,931.89
2017-11-20T17:26:41.535Z,931.85
2017-11-20T17:27:53.858Z,931.83
2017-11-20T17:29:06.150Z,931.84
2017-11-20T17:30:18.876Z,931.84
2017-11-20T17:31:31.608Z,931.8
2017-11-20T17:32:44.315Z,931.8
2017-11-20T17:33:56.523Z,931.79
2017-11-20T17:35:08.330Z,931.81
2017-11-20T17:36:20.570Z,931.81
2017-11-20T17:37:33.303Z,931.78
2017-11-20T17:38:45.556Z,931.76
2017-11-20T17:39:58.290Z,931.7
2017-11-20T17:41:10.556Z,931.73
2017-11-20T17:42:22.958Z,931.74
2017-11-20T17:43:34.762Z,931.7
2017-11-20T17:44:47.033Z,931.71
2017-11-20T17:45:59.264Z,931.71
2017-11-20T17:47:11.549Z,931.73
2017-11-20T17:48:24.230Z,931.73
2017-11-20T17:49:36.478Z,931.71
2017-11-20T17:50:49.129Z,931.7
2017-11-20T17:52:01.388Z,931.71
2017-11-20T17:53:13.631Z,931.68
2017-11-20T17:54:26.527Z,931.65
2017-11-20T17:55:39.161Z,931.68
2017-11-20T17:56:51.394Z,931.67
2017-11-20T17:58:04.253Z,931.69
2017-11-20T17:59:16.936Z,931.69
2017-11-20T18:00:29.655Z,931.7
2017-11-20T18:01:42.340Z,931.68
2017-11-20T18:02:55.004Z,931.62
2017-11-20T18:04:07.260Z,931.66
2017-11-20T18:05:19.054Z,931.61
2017-11-20T18:06:31.319Z,931.65
2017-11-20T18:07:43.968Z,931.67
2017-11-20T18:08:56.182Z,931.6
2017-11-20T18:10:08.425Z,931.58
2017-11-20T18:11:20.216Z,931.62
2017-11-20T18:12:32.052Z,931.59
2017-11-20T18:13:44.364Z,931.56
2017-11-20T18:14:56.644Z,931.56
2017-11-20T18:16:07.958Z,931.56
2017-11-20T18:17:20.172Z,931.52
2017-11-20T18:18:32.920Z,931.5
2017-11-20T18:19:45.601Z,931.5
2017-11-20T18:20:57.389Z,931.44
2017-11-20T18:22:10.045Z,931.45
2017-11-20T18:23:22.682Z,931.44
2017-11-20T18:24:35.352Z,931.5
2017-11-20T18:25:48.070Z,931.46
2017-11-20T18:27:00.346Z,931.46
2017-11-20T18:28:12.581Z,931.46
2017-11-20T18:29:24.842Z,931.48
2017-11-20T18:30:37.561Z,931.43
2017-11-20T18:31:50.222Z,931.43
2017-11-20T18:33:02.896Z,931.47
2017-11-20T18:34:15.194Z,931.45
2017-11-20T18:35:27.889Z,931.42
2017-11-20T18:36:40.640Z,931.4
2017-11-20T18:37:53.386Z,931.39
2017-11-20T18:39:05.653Z,931.31
2017-11-20T18:40:17.913Z,931.33
2017-11-20T18:41:30.084Z,931.34
2017-11-20T18:42:41.884Z,931.28
2017-11-20T18:43:54.553Z,931.35
2017-11-20T18:45:06.352Z,931.36
2017-11-20T18:46:19.011Z,931.36
2017-11-20T18:47:31.198Z,931.36
2017-11-20T18:48:43.800Z,931.36
2017-11-20T18:49:56.449Z,931.32
2017-11-20T18:51:09.067Z,931.32
2017-11-20T18:52:21.795Z,931.36
2017-11-20T18:53:34.444Z,931.36
2017-11-20T18:54:47.059Z,931.34
2017-11-20T18:55:59.248Z,931.38
2017-11-20T18:57:10.985Z,931.38
2017-11-20T18:58:23.599Z,931.4
2017-11-20T18:59:35.343Z,931.47
2017-11-20T19:00:47.964Z,931.46
2017-11-20T19:02:00.569Z,931.5
2017-11-20T19:03:13.341Z,931.45
2017-11-20T19:04:26.018Z,931.45
2017-11-20T19:05:38.234Z,931.4
2017-11-20T19:06:50.917Z,931.4
2017-11-20T19:08:03.609Z,931.41
2017-11-20T19:09:16.347Z,931.37
2017-11-20T19:10:29.078Z,931.32
2017-11-20T19:11:41.796Z,931.3
2017-11-20T19:12:54.503Z,931.28
2017-11-20T19:14:07.264Z,931.31
2017-11-20T19:15:19.944Z,931.28
2017-11-20T19:16:32.659Z,931.31
2017-11-20T19:17:45.318Z,931.29
2017-11-20T19:18:57.532Z,931.31
2017-11-20T19:20:09.767Z,931.34
2017-11-20T19:21:22.400Z,931.32
2017-11-20T19:22:35.117Z,931.3
2017-11-20T19:23:47.886Z,931.26
2017-11-20T19:25:00.683Z,931.28
2017-11-20T19:26:12.998Z,931.29
2017-11-20T19:27:25.756Z,931.24
2017-11-20T19:28:38.055Z,931.3
2017-11-20T19:29:50.816Z,931.2
2017-11-20T19:31:03.123Z,931.34
2017-11-20T19:32:15.876Z,931.32
2017-11-20T19:33:28.649Z,931.32
2017-11-20T19:34:40.983Z,931.3
2017-11-20T19:35:53.289Z,931.32
2017-11-20T19:37:05.599Z,931.33
2017-11-20T19:38:18.365Z,931.3
2017-11-20T19:39:31.112Z,931.25
2017-11-20T19:40:43.419Z,931.27
2017-11-20T19:41:55.719Z,931.29
2017-11-20T19:43:08.014Z,931.32
2017-11-20T19:44:20.331Z,931.3
2017-11-20T19:45:33.074Z,931.34
2017-11-20T19:46:45.820Z,931.37
2017-11-20T19:47:58.564Z,931.39
2017-11-20T19:49:11.308Z,931.41
2017-11-20T19:50:24.066Z,931.45
2017-11-20T19:51:36.797Z,931.45
2017-11-20T19:52:49.541Z,931.46
2017-11-20T19:54:02.288Z,931.49
2017-11-20T19:55:14.609Z,931.49
2017-11-20T19:56:26.466Z,931.49
2017-11-20T19:57:39.179Z,931.5
2017-11-20T19:58:51.917Z,931.52
2017-11-20T20:00:04.673Z,931.5
2017-11-20T20:01:17.403Z,931.53
2017-11-20T20:02:30.146Z,931.57
2017-11-20T20:03:42.460Z,931.51
2017-11-20T20:04:55.245Z,931.52
2017-11-20T20:06:08.002Z,931.5
2017-11-20T20:07:20.741Z,931.47
2017-11-20T20:08:33.489Z,931.51
2017-11-20T20:09:46.203Z,931.53
2017-11-20T20:10:58.479Z,931.49
2017-11-20T20:12:11.234Z,931.54
2017-11-20T20:13:23.902Z,931.48
2017-11-20T20:14:36.573Z,931.51
2017-11-20T20:15:48.394Z,931.5
2017-11-20T20:17:01.082Z,931.51
2017-11-20T20:18:13.741Z,931.5
2017-11-20T20:19:26.394Z,931.5
2017-11-20T20:20:39.033Z,931.56
2017-11-20T20:21:51.712Z,931.55
2017-11-20T20:23:03.923Z,931.57
2017-11-20T20:24:16.607Z,931.63
2017-11-20T20:25:29.260Z,931.63
2017-11-20T20:26:41.977Z,931.59
2017-11-20T20:27:54.649Z,931.61
2017-11-20T20:29:05.974Z,931.56
2017-11-20T20:30:18.647Z,931.57
2017-11-20T20:31:31.393Z,931.57
2017-11-20T20:32:43.623Z,931.56
2017-11-20T20:33:56.241Z,931.58
2017-11-20T20:35:08.963Z,931.55
2017-11-20T20:36:21.646Z,931.55
2017-11-20T20:37:34.255Z,931.56
2017-11-20T20:38:46.957Z,931.52
2017-11-20T20:39:59.730Z,931.51
2017-11-20T20:41:12.413Z,931.45
2017-11-20T20:42:24.664Z,931.51
2017-11-20T20:43:37.333Z,931.48
2017-11-20T20:44:49.578Z,931.43
2017-11-20T20:46:02.261Z,931.39
2017-11-20T20:47:14.960Z,931.37
2017-11-20T20:48:26.829Z,931.4
2017-11-20T20:49:39.585Z,931.35
2017-11-20T20:50:51.895Z,931.39
2017-11-20T20:52:04.200Z,931.35
2017-11-20T20:53:16.495Z,931.32
2017-11-20T20:54:29.252Z,931.37
2017-11-20T20:55:41.990Z,931.28
2017-11-20T20:56:54.747Z,931.26
2017-11-20T20:58:07.488Z,931.27
2017-11-20T20:59:20.244Z,931.32
2017-11-20T21:00:33.015Z,931.37
2017-11-20T21:01:45.764Z,931.41
2017-11-20T21:02:58.493Z,931.44
2017-11-20T21:04:11.236Z,931.5
2017-11-20T21:05:23.975Z,931.53
2017-11-20T21:06:35.813Z,931.54
2017-11-20T21:07:48.076Z,931.55
2017-11-20T21:09:00.769Z,931.63
2017-11-20T21:10:13.498Z,931.64
2017-11-20T21:11:26.443Z,931.6
2017-11-20T21:12:39.123Z,931.6
2017-11-20T21:13:51.358Z,931.57
2017-11-20T21:15:04.089Z,931.6
2017-11-20T21:16:16.837Z,931.65
2017-11-20T21:17:29.521Z,931.63
2017-11-20T21:18:42.171Z,931.59
2017-11-20T21:19:54.864Z,931.61
2017-11-20T21:21:07.119Z,931.75
2017-11-20T21:22:19.807Z,931.79
2017-11-20T21:23:31.992Z,931.85
2017-11-20T21:24:44.171Z,931.83
2017-11-20T21:25:56.810Z,931.87
2017-11-20T21:27:09.420Z,931.94
2017-11-20T21:28:22.046Z,931.9
2017-11-20T21:29:34.275Z,931.89
2017-11-20T21:30:46.903Z,931.92
2017-11-20T21:31:59.075Z,931.91
2017-11-20T21:33:11.252Z,931.97
2017-11-20T21:34:23.858Z,931.96
2017-11-20T21:35:36.040Z,931.96
2017-11-20T21:36:48.683Z,931.91
2017-11-20T21:38:01.304Z,931.89
2017-11-20T21:39:13.928Z,931.96
2017-11-20T21:40:26.214Z,932.02
2017-11-20T21:41:38.451Z,932.06
2017-11-20T21:42:51.135Z,932.08
2017-11-20T21:44:03.810Z,932.15
2017-11-20T21:45:16.492Z,932.17
2017-11-20T21:46:28.700Z,932.19
2017-11-20T21:47:40.458Z,932.18
2017-11-20T21:48:53.119Z,932.18
2017-11-20T21:50:05.799Z,932.21
2017-11-20T21:51:18.483Z,932.12
2017-11-20T21:52:31.175Z,932.15
2017-11-20T21:53:43.007Z,932.16
2017-11-20T21:54:55.703Z,932.23
2017-11-20T21:56:08.464Z,932.18
2017-11-20T21:57:21.142Z,932.15
2017-11-20T21:58:32.914Z,932.22
2017-11-20T21:59:45.148Z,932.23
2017-11-20T22:00:57.837Z,932.21
2017-11-20T22:02:10.072Z,932.27
2017-11-20T22:03:22.747Z,932.36
2017-11-20T22:04:34.564Z,932.41
2017-11-20T22:05:46.883Z,932.48
2017-11-20T22:06:59.546Z,932.55
2017-11-20T22:08:12.244Z,932.58
2017-11-20T22:09:24.927Z,932.59
2017-11-20T22:10:37.199Z,932.6
2017-11-20T22:11:49.888Z,932.56
2017-11-20T22:13:02.580Z,932.58
2017-11-20T22:14:15.246Z,932.54
2017-11-20T22:15:27.084Z,932.52
2017-11-20T22:16:39.384Z,932.47
2017-11-20T22:17:52.132Z,932.39
2017-11-20T22:19:04.871Z,932.38
2017-11-20T22:20:17.542Z,932.42
2017-11-20T22:21:29.829Z,932.39
2017-11-20T22:22:41.215Z,932.46
2017-11-20T22:23:53.947Z,932.45
2017-11-20T22:25:06.165Z,932.47
2017-11-20T22:26:18.400Z,932.54
2017-11-20T22:27:31.127Z,932.55
2017-11-20T22:28:43.766Z,932.59
2017-11-20T22:29:56.515Z,932.61
2017-11-20T22:31:08.796Z,932.63
2017-11-20T22:32:21.531Z,932.64
2017-11-20T22:33:33.769Z,932.64
2017-11-20T22:34:46.472Z,932.63
2017-11-20T22:35:59.178Z,932.7
2017-11-20T22:37:11.413Z,932.72
2017-11-20T22:38:23.625Z,932.72
2017-11-20T22:39:35.875Z,932.77
2017-11-20T22:40:48.541Z,932.77
2017-11-20T22:42:01.240Z,932.8
2017-11-20T22:43:13.909Z,932.85
2017-11-20T22:44:26.644Z,932.89
2017-11-20T22:45:38.440Z,932.92
2017-11-20T22:46:51.096Z,932.95
2017-11-20T22:48:03.812Z,932.9
2017-11-20T22:49:16.534Z,932.95
2017-11-20T22:50:28.778Z,933.01
2017-11-20T22:51:41.032Z,933.01
2017-11-20T22:52:53.813Z,932.97
2017-11-20T22:54:06.563Z,932.98
2017-11-20T22:55:19.273Z,932.93
2017-11-20T22:56:31.987Z,932.98
2017-11-20T22:57:44.678Z,932.95
2017-11-20T22:58:57.349Z,932.92
2017-11-20T23:00:10.068Z,932.89
2017-11-20T23:01:22.786Z,932.91
2017-11-20T23:02:35.537Z,932.91
2017-11-20T23:03:48.324Z,932.97
2017-11-20T23:05:01.038Z,932.92
2017-11-20T23:06:12.978Z,932.97
2017-11-20T23:07:25.277Z,932.93
2017-11-20T23:08:38.020Z,932.9
2017-11-20T23:09:50.762Z,932.9
2017-11-20T23:11:03.058Z,932.9
2017-11-20T23:12:15.825Z,932.89
2017-11-20T23:13:28.562Z,932.92
2017-11-20T23:14:41.249Z,932.94
2017-11-20T23:15:53.931Z,932.96
2017-11-20T23:17:06.179Z,932.99
2017-11-20T23:18:18.940Z,932.99
2017-11-20T23:19:31.230Z,933.06
2017-11-20T23:20:43.923Z,933.06
2017-11-20T23:21:56.661Z,933.06
2017-11-20T23:23:09.362Z,933.06
2017-11-20T23:24:21.658Z,933.1
2017-11-20T23:25:34.406Z,933.08
2017-11-20T23:26:47.094Z,933.09
2017-11-20T23:27:59.805Z,933.13
2017-11-20T23:29:11.623Z,933.16
2017-11-20T23:30:23.886Z,933.17
2017-11-20T23:31:36.652Z,933.19
2017-11-20T23:32:48.897Z,933.2
2017-11-20T23:34:01.600Z,933.2
2017-11-20T23:35:13.916Z,933.23
2017-11-20T23:36:26.607Z,933.26
2017-11-20T23:37:38.412Z,933.3
2017-11-20T23:38:51.310Z,933.3
2017-11-20T23:40:23.710Z,933.32
2017-11-20T23:41:35.957Z,933.34
2017-11-20T23:42:48.212Z,933.33
2017-11-20T23:44:00.911Z,933.34
2017-11-20T23:45:13.147Z,933.36
2017-11-20T23:46:25.833Z,933.37
2017-11-20T23:47:38.543Z,933.35
2017-11-20T23:48:50.819Z,933.33
2017-11-20T23:50:03.556Z,933.3
2017-11-20T23:51:15.409Z,933.32
2017-11-20T23:52:27.648Z,933.34
2017-11-20T23:53:40.352Z,933.35
2017-11-20T23:54:53.183Z,933.39
2017-11-20T23:56:05.426Z,933.44
2017-11-20T23:57:18.126Z,933.45
2017-11-20T23:58:30.931Z,933.5
2017-11-20T23:59:43.638Z,933.52
